Pottersville, Vermont
Current Conditions -  °F | °C
As of 9:55 AM on Wednesday 26 Nov 2014 (Local Time) from KCDA Reporting Station
Overcast Overcast  
Wind Chill: 29°   Ceiling: 11000
Heat Index: 33°   Visibility: 10mi
Dew Point: 22°   Wind: 5mph
Humidity: 64%   Direction: 330°NNW
Pressure: 30.2"   Gusts: NA
Location:  44.5359°N, 72.4842°W
Report Text: KCDA 261455Z AUTO 33004KT 10SM SCT032 OVC110 01/M06 A3020 RMK AO2 T00051057
Loading
Personal Weather Stations






























Interactive Weather Map New forecast layout! Learn more

10-Day Weather Forecast

Advertisements
Track Severe Weather on mobile